4NK6 weather

Ag-Alley Airport
Marion, New York, United States

Public forecast

Using degrees Fahrenheit for public forecast. Weather courtesy of forecast.io.

METAR (pilot weather report)

Closest report is Greater Rochester International Airport, 21.8 nm (40.4 km) W. Retrieved 2019/05/24 06:54 UTC (10 minutes ago):

KROC 240654Z 28012KT 10SM FEW090 SCT200 14/08 A2993 RMK AO2 SLP135 T01440078

TAF (pilot weather forecast)

Closest forecast is Greater Rochester International Airport, 21.8 nm (40.4 km) W. Retrieved 2019/05/24 06:42 UTC (23 minutes ago):

TAF KROC 240539Z 2406/2506 30012KT P6SM SCT040 FM240900 29010KT P6SM SCT025 FM241200 30012G20KT P6SM BKN025 FM241600 31012G20KT P6SM BKN035 FM242300 31005KT P6SM SCT040